METAR Data
IDs: Format: Raw Decoded Include TAF

Data at: 1350 UTC 10 Aug 2022

KMAE 101253Z AUTO 30007KT 10SM CLR 18/12 A3000 RMK AO2 SLP157 T01830117
KMAE 101153Z AUTO 31009KT 10SM CLR 19/11 A2999 RMK AO2 SLP152 T01940111 10239 20194 52009
KMAE 101053Z AUTO 31010KT 10SM CLR 19/12 A2998 RMK AO2 SLP148 T01940117
KMAE 100953Z AUTO 31008KT 10SM CLR 20/12 A2998 RMK AO2 SLP147 T02000117
KMAE 100853Z AUTO 31010KT 10SM CLR 21/12 A2996 RMK AO2 SLP143 T02060122 51008
KMAE 100753Z AUTO 31011KT 10SM CLR 22/13 A2996 RMK AO2 SLP141 T02170128 403560183
KMAE 100653Z AUTO 30008KT 10SM CLR 23/13 A2995 RMK AO2 SLP140 T02280133
KMAE 100553Z AUTO 29009KT 10SM CLR 24/14 A2994 RMK AO2 SLP135 T02390139 10356 20239 53019
KMAE 100453Z AUTO 29007KT 10SM CLR 26/15 A2993 RMK AO2 SLP130 T02610150
KMAE 100353Z AUTO 31008KT 10SM CLR 28/13 A2989 RMK AO2 SLP119 T02830133
KMAE 100253Z AUTO 31008KT 10SM CLR 30/13 A2988 RMK AO2 SLP115 T03000133 53006
KMAE 100153Z AUTO 30010KT 10SM CLR 33/13 A2987 RMK AO2 SLP111 T03280128
KMAE 100053Z AUTO 30009KT 10SM CLR 34/12 A2987 RMK AO2 SLP110 T03390122
KMAE 092353Z AUTO 29009KT 10SM CLR 36/12 A2986 RMK AO2 SLP109 T03560117 10356 20278 56016
KMAE 092253Z AUTO 32007KT 290V010 10SM CLR 36/12 A2987 RMK AO2 SLP113 T03560117
KMAE 092153Z AUTO VRB03KT 10SM CLR 34/11 A2989 RMK AO2 SLP119 T03440111
KMAE 092053Z AUTO VRB04KT 10SM CLR 34/11 A2991 RMK AO2 SLP125 T03390111 58014
KMAE 091953Z AUTO 29004KT 10SM CLR 31/11 A2993 RMK AO2 SLP133 T03110111
KMAE 091853Z AUTO 30007KT 260V340 10SM CLR 29/12 A2995 RMK AO2 SLP138 T02940122
KMAE 091753Z AUTO 30006KT 10SM CLR 28/12 A2995 RMK AO2 SLP140 T02780122 10278 20183 51005
KMAE 091653Z AUTO 30008KT 10SM CLR 27/11 A2995 RMK AO2 SLP138 T02670111
KMAE 091553Z AUTO 30010KT 10SM CLR 25/12 A2995 RMK AO2 SLP137 T02500117
KMAE 091453Z AUTO 30007KT 10SM CLR 22/12 A2994 RMK AO2 SLP134 T02170122 52013
KMAE 091353Z AUTO 30005KT 10SM CLR 19/13 A2993 RMK AO2 SLP130 T01890128
KMAE 091253Z AUTO 30005KT 10SM CLR 19/13 A2991 RMK AO2 SLP124 T01890128
KMAE 091153Z AUTO 28006KT 10SM CLR 19/12 A2990 RMK AO2 SLP121 T01940122 10250 20194 53002
KMAE 091053Z AUTO 30006KT 10SM CLR 20/12 A2988 RMK AO2 SLP116 T02000122
KMAE 090953Z AUTO 32006KT 10SM CLR 21/13 A2988 RMK AO2 SLP116 T02060128
KMAE 090853Z AUTO 30007KT 10SM CLR 21/13 A2989 RMK AO2 SLP119 T02110128 50000
KMAE 090753Z AUTO 30006KT 10SM CLR 22/13 A2990 RMK AO2 SLP123 T02220128 403560178
KMAE 090653Z AUTO 30007KT 10SM CLR 24/13 A2990 RMK AO2 SLP121 T02390128
KMAE 090553Z AUTO 30007KT 10SM CLR 25/13 A2989 RMK AO2 SLP119 T02500133 10356 20250 51012
KMAE 090453Z AUTO 31008KT 10SM CLR 27/13 A2988 RMK AO2 SLP116 T02670128
KMAE 090353Z AUTO 30006KT 10SM CLR 28/13 A2987 RMK AO2 SLP113 T02780128
KMAE 090253Z AUTO 31006KT 10SM CLR 30/14 A2986 RMK AO2 SLP108 T03000139 53001
KMAE 090153Z AUTO 30009KT 10SM CLR 33/12 A2985 RMK AO2 SLP103 T03330122